KCOT/COT METAR and TAF weather

Enter ICAO airport designator
Station Type Date Time Source
KCOT METAR 2019/04/19 21:53 UTC NOAA

KCOT 192153Z AUTO 02012KT 10SM CLR 28/03 A3004 RMK AO2 SLP167 T02830033


Station Type Date Time Source
KCOT Decoded METAR 2019/04/19 21:53 UTC NOAA

COTULLA-LASALLE COUNTY AIRPORT , TX, United States (KCOT) 28-27N 099-13W 140M
Apr 19, 2019 - 05:53 PM EDT / 2019.04.19 2153 UTC
Wind: from the NNE (020 degrees) at 14 MPH (12 KT):0
Visibility: 10 mile(s):0
Sky conditions: clear
Temperature: 82.9 F (28.3 C)
Dew Point: 37.9 F (3.3 C)
Relative Humidity: 20%
Pressure (altimeter): 30.04 in. Hg (1017 hPa)
ob: KCOT 192153Z AUTO 02012KT 10SM CLR 28/03 A3004 RMK AO2 SLP167 T02830033
cycle: 22

Station Type Date Time Source
KCOT TAF 2019/04/19 18:32 UTC NOAA

TAF KCOT 191732Z 1918/2018 01010KT P6SM SKC
FM200000 VRB04KT P6SM SKC
FM200500 13006KT P6SM SKC

Example: see airport list